Relevés horaires Elsenborn (Belgique)


Relevés horaires à Elsenborn - Lundi 28 Nov. 2016
Heure UTC1 Température [°C] Vent [km/h] Hum. [%] Pres.4 [hPa] Visi. [Km] Nébu. [octa] Préc.5 [mm] Cond.
2m. Res. Ros. Dir.2 Vit. Moy. Raf.3
23:00 -5.6 -9.1 -7.8 E 7.4 -- -- 84 1034.4(0.3/3h) 20 -- -- --
22:00 -5.1 -8.5 -7.5 E 7.4 7.4 13.0 83 1034.2(0.6/3h) 20 -- -- --
21:00 -4.4 -8.4 -7.5 E 9.3 -- -- 79 1033.9(1.0/3h) 20 -- -- --
20:00 -3.9 -7.1 -7.8 E 7.4 -- -- 74 1033.5(1.0/3h) 20 -- -- --
19:00 -3.7 -6.1 -6.0 E 5.6 -- -- 84 1033(1.0/3h) 20 -- -- --
18:00 -3.3 -3.3 -6.1 ENE 3.7 -- -- 81 1032.5(0.8/3h) 20 -- -- --
17:00 -3.3 -5.6 -5.7 ENE 5.6 -- -- 83 1032.2(0.8/3h) 20 -- -- --
16:00 -2.9 -5.2 -5.4 ENE 5.6 -- -- 83 1031.7(0.9/3h) 20 -- -- --
15:00 -1.8 -3.9 -5.6 ENE 5.6 -- -- 75 1031.2(0.8/3h) 20 -- -- --
14:00 -0.6 -3.2 -6.2 ENE 7.4 -- -- 66 1030.5(0.7/3h) 20 -- -- --
13:00 -0.1 -2.7 -5.8 ENE 7.4 -- -- 65 1029.9(0.1/3h) 20 -- -- --
12:00 0.0 -2.5 -5.9 E 7.4 -- -- 64 1029.7(0.5/3h) 20 -- -- --
11:00 -0.4 -3 -5.8 E 7.4 -- -- 67 1029.7(1.0/3h) 20 -- -- --
10:00 -0.9 -3.6 -3.7 E 7.4 -- -- 81 1030(1.7/3h) 20 -- -- --
09:00 -1.9 -4 -3.8 ENE 5.6 -- -- 87 1029.7(1.5/3h) 17 -- -- --
08:00 -2.8 -5.1 -4.1 ENE 5.6 -- -- 91 1029.2(1.5/3h) 18 -- -- --
07:00 -3.2 -3.2 -4.0 ENE 3.7 -- -- 94 1028.7(1.2/3h) 12 -- -- --
06:00 -3.1 -3.1 -3.5 NE 3.7 -- -- 97 1028.2(1.3/3h) 8 -- -- --
05:00 -2.3 -2.3 -3.0 ENE 3.7 -- -- 95 1027.5(1.0/3h) 9 -- -- --
04:00 -1.9 -1.9 -2.7 ENE 3.7 -- -- 94 1027(0.8/3h) 10 -- -- --
03:00 -1.5 -1.5 -2.0 ENE 3.7 -- -- 96 1026.5(0.7/3h) 7 -- -- --
02:00 -0.4 -2.3 -1.4 ENE 5.6 -- -- 93 1025.9(0.7/3h) 10 -- -- --
01:00 0.3 -2.2 -0.6 ENE 7.4 -- -- 94 1025.5(0.9/3h) 10 -- -- --
00:00 0.2 0.2 -0.5 ENE 3.7 -- -- 95 1025.2(0.7/3h) 6 -- -- NA

1 Coordinated Universal Time. Actuellement il est 07:00 locale et 05:00 UTC.

2 Le vent souffle depuis la direction indiquée vers la direction oposée.

3 Les rafales max. sont disponible 40 min après l'heure du relevé.

4 Pour les stations d'altitude (plus de 600m) le géopotentiel du niveau le plus proche de la pression obligatoire est indiqué.

5 Les stations disposant d'un diffuseur peuvent indiquer "trace". Cela signifie que des précipitations ont touchés le sol mais que la quantité est inférieure à 0.1 mm.

Récapitulatif de la journée
Température [°C] Vent [km/h] Ensoleillement4 [h] Precipitations totale5 [mm] Pression [Hpa]
Min1 Max.2 Moy.3 Max. Min Max.
-3.5 0.3 7.4 13.0 0 h 0 min 0 1025.2 1034.4

1 Température minimale relevée entre 18:00 UTC la veille et 18:00 UTC le jour donné.

2 Température maximale relevée entre 06:00 UTC le jour donné et 06:00 UTC le lendemain.

3 Vent moyen de la journée basé sur les relevés horaires.

4 Ensoleillement en heures relevé entre 06:00 UTC la veille et 06:00 UTC le jour donné.

5 Précipitations totales tombées entre 06:00 UTC la jour donné et 06:00 UTC le lendemain.

Graphiques horaires